sensor_id;sensor_type;location;lat;lon;timestamp;P1;durP1;ratioP1;P2;durP2;ratioP2
7883;SDS011;3987;51.458;7.238;2023-12-28T00:04:47;3.05;;;2.95;;
7883;SDS011;3987;51.458;7.238;2023-12-28T00:19:47;3.72;;;3.53;;
7883;SDS011;3987;51.458;7.238;2023-12-28T00:34:48;3.63;;;3.53;;
7883;SDS011;3987;51.458;7.238;2023-12-28T00:49:48;3.90;;;3.60;;
7883;SDS011;3987;51.458;7.238;2023-12-28T01:04:49;3.00;;;2.90;;
7883;SDS011;3987;51.458;7.238;2023-12-28T01:19:49;2.80;;;2.70;;
7883;SDS011;3987;51.458;7.238;2023-12-28T01:34:50;2.90;;;2.80;;
7883;SDS011;3987;51.458;7.238;2023-12-28T01:49:51;2.57;;;2.47;;
7883;SDS011;3987;51.458;7.238;2023-12-28T02:04:53;2.60;;;2.50;;
7883;SDS011;3987;51.458;7.238;2023-12-28T02:19:54;2.70;;;2.50;;
7883;SDS011;3987;51.458;7.238;2023-12-28T02:34:56;2.87;;;2.77;;
7883;SDS011;3987;51.458;7.238;2023-12-28T02:50:01;2.40;;;2.40;;
7883;SDS011;3987;51.458;7.238;2023-12-28T03:05:01;3.00;;;2.80;;
7883;SDS011;3987;51.458;7.238;2023-12-28T03:20:02;2.70;;;2.50;;
7883;SDS011;3987;51.458;7.238;2023-12-28T03:35:03;2.80;;;2.70;;
7883;SDS011;3987;51.458;7.238;2023-12-28T03:50:04;3.03;;;2.93;;
7883;SDS011;3987;51.458;7.238;2023-12-28T04:05:05;2.67;;;2.50;;
7883;SDS011;3987;51.458;7.238;2023-12-28T04:20:07;2.47;;;2.37;;
7883;SDS011;3987;51.458;7.238;2023-12-28T04:35:08;2.30;;;2.20;;
7883;SDS011;3987;51.458;7.238;2023-12-28T04:50:08;2.42;;;2.22;;
7883;SDS011;3987;51.458;7.238;2023-12-28T05:05:14;1.90;;;1.80;;
7883;SDS011;3987;51.458;7.238;2023-12-28T05:20:15;1.80;;;1.70;;
7883;SDS011;3987;51.458;7.238;2023-12-28T05:35:15;2.13;;;2.00;;
7883;SDS011;3987;51.458;7.238;2023-12-28T05:50:16;2.10;;;1.97;;
7883;SDS011;3987;51.458;7.238;2023-12-28T06:05:16;2.10;;;1.73;;
7883;SDS011;3987;51.458;7.238;2023-12-28T06:20:17;2.17;;;2.08;;
7883;SDS011;3987;51.458;7.238;2023-12-28T06:35:17;2.13;;;2.03;;
7883;SDS011;3987;51.458;7.238;2023-12-28T06:50:18;2.00;;;1.90;;
7883;SDS011;3987;51.458;7.238;2023-12-28T07:05:18;3.03;;;2.17;;
7883;SDS011;3987;51.458;7.238;2023-12-28T07:20:18;2.75;;;2.20;;
7883;SDS011;3987;51.458;7.238;2023-12-28T07:35:19;2.63;;;2.30;;
7883;SDS011;3987;51.458;7.238;2023-12-28T07:50:19;3.75;;;2.20;;
7883;SDS011;3987;51.458;7.238;2023-12-28T08:05:22;2.27;;;2.00;;
7883;SDS011;3987;51.458;7.238;2023-12-28T08:20:22;2.90;;;2.57;;
7883;SDS011;3987;51.458;7.238;2023-12-28T08:35:22;3.77;;;1.97;;
7883;SDS011;3987;51.458;7.238;2023-12-28T08:50:23;2.55;;;2.25;;
7883;SDS011;3987;51.458;7.238;2023-12-28T09:05:23;4.30;;;2.40;;
7883;SDS011;3987;51.458;7.238;2023-12-28T09:20:24;2.45;;;2.22;;
7883;SDS011;3987;51.458;7.238;2023-12-28T09:35:24;3.60;;;2.50;;
7883;SDS011;3987;51.458;7.238;2023-12-28T09:50:25;5.03;;;2.47;;
7883;SDS011;3987;51.458;7.238;2023-12-28T10:05:26;3.47;;;2.67;;
7883;SDS011;3987;51.458;7.238;2023-12-28T10:20:27;4.68;;;2.50;;
7883;SDS011;3987;51.458;7.238;2023-12-28T10:35:28;3.60;;;2.53;;
7883;SDS011;3987;51.458;7.238;2023-12-28T10:50:28;4.45;;;2.35;;
7883;SDS011;3987;51.458;7.238;2023-12-28T11:05:31;4.93;;;2.27;;
7883;SDS011;3987;51.458;7.238;2023-12-28T11:20:32;6.53;;;2.33;;
7883;SDS011;3987;51.458;7.238;2023-12-28T11:35:36;4.37;;;1.90;;
7883;SDS011;3987;51.458;7.238;2023-12-28T11:50:38;4.17;;;2.33;;
7883;SDS011;3987;51.458;7.238;2023-12-28T12:05:39;6.15;;;2.42;;
7883;SDS011;3987;51.458;7.238;2023-12-28T12:20:40;4.28;;;2.20;;
7883;SDS011;3987;51.458;7.238;2023-12-28T12:35:40;3.87;;;2.27;;
7883;SDS011;3987;51.458;7.238;2023-12-28T12:50:41;6.93;;;2.40;;
7883;SDS011;3987;51.458;7.238;2023-12-28T13:05:41;4.50;;;2.00;;
7883;SDS011;3987;51.458;7.238;2023-12-28T13:20:44;4.80;;;2.00;;
7883;SDS011;3987;51.458;7.238;2023-12-28T13:35:46;6.27;;;2.00;;
7883;SDS011;3987;51.458;7.238;2023-12-28T13:50:46;4.47;;;2.20;;
7883;SDS011;3987;51.458;7.238;2023-12-28T14:05:46;6.93;;;2.33;;
7883;SDS011;3987;51.458;7.238;2023-12-28T14:20:47;3.40;;;2.00;;
7883;SDS011;3987;51.458;7.238;2023-12-28T14:35:47;5.45;;;2.00;;
7883;SDS011;3987;51.458;7.238;2023-12-28T14:50:49;2.30;;;2.10;;
7883;SDS011;3987;51.458;7.238;2023-12-28T15:05:50;5.05;;;2.08;;
7883;SDS011;3987;51.458;7.238;2023-12-28T15:20:53;4.13;;;2.03;;
7883;SDS011;3987;51.458;7.238;2023-12-28T15:35:53;5.05;;;2.38;;
7883;SDS011;3987;51.458;7.238;2023-12-28T15:50:54;4.05;;;2.05;;
7883;SDS011;3987;51.458;7.238;2023-12-28T16:05:54;4.70;;;2.17;;
7883;SDS011;3987;51.458;7.238;2023-12-28T16:20:55;3.80;;;1.77;;
7883;SDS011;3987;51.458;7.238;2023-12-28T16:35:56;4.20;;;2.20;;
7883;SDS011;3987;51.458;7.238;2023-12-28T16:50:56;6.13;;;2.45;;
7883;SDS011;3987;51.458;7.238;2023-12-28T17:06:00;5.33;;;2.20;;
7883;SDS011;3987;51.458;7.238;2023-12-28T17:21:00;4.88;;;1.90;;
7883;SDS011;3987;51.458;7.238;2023-12-28T17:36:01;4.87;;;1.93;;
7883;SDS011;3987;51.458;7.238;2023-12-28T17:51:02;2.83;;;2.00;;
7883;SDS011;3987;51.458;7.238;2023-12-28T18:06:02;4.00;;;2.42;;
7883;SDS011;3987;51.458;7.238;2023-12-28T18:21:03;3.77;;;2.20;;
7883;SDS011;3987;51.458;7.238;2023-12-28T18:36:04;3.25;;;1.83;;
7883;SDS011;3987;51.458;7.238;2023-12-28T18:51:10;2.83;;;1.90;;
7883;SDS011;3987;51.458;7.238;2023-12-28T19:06:14;2.17;;;1.88;;
7883;SDS011;3987;51.458;7.238;2023-12-28T19:21:16;2.80;;;2.03;;
7883;SDS011;3987;51.458;7.238;2023-12-28T19:36:17;3.03;;;2.70;;
7883;SDS011;3987;51.458;7.238;2023-12-28T19:51:17;3.05;;;2.60;;
7883;SDS011;3987;51.458;7.238;2023-12-28T20:06:18;2.28;;;2.05;;
7883;SDS011;3987;51.458;7.238;2023-12-28T20:21:19;2.73;;;1.80;;
7883;SDS011;3987;51.458;7.238;2023-12-28T20:36:19;2.60;;;2.40;;
7883;SDS011;3987;51.458;7.238;2023-12-28T20:51:20;2.00;;;1.85;;
7883;SDS011;3987;51.458;7.238;2023-12-28T21:06:20;4.00;;;2.15;;
7883;SDS011;3987;51.458;7.238;2023-12-28T21:21:21;5.23;;;2.50;;
7883;SDS011;3987;51.458;7.238;2023-12-28T21:36:21;3.72;;;1.85;;
7883;SDS011;3987;51.458;7.238;2023-12-28T21:51:22;2.40;;;2.20;;
7883;SDS011;3987;51.458;7.238;2023-12-28T22:06:22;2.25;;;1.90;;
7883;SDS011;3987;51.458;7.238;2023-12-28T22:21:23;4.00;;;1.77;;
7883;SDS011;3987;51.458;7.238;2023-12-28T22:36:23;3.05;;;1.73;;
7883;SDS011;3987;51.458;7.238;2023-12-28T22:51:23;4.70;;;1.90;;
7883;SDS011;3987;51.458;7.238;2023-12-28T23:06:24;1.95;;;1.65;;
7883;SDS011;3987;51.458;7.238;2023-12-28T23:21:27;2.00;;;1.80;;
7883;SDS011;3987;51.458;7.238;2023-12-28T23:36:27;2.92;;;1.73;;
7883;SDS011;3987;51.458;7.238;2023-12-28T23:51:27;1.90;;;1.47;;
